createdAt,value
2019-01-05T00:00:01.311Z,10.76
2019-01-05T00:03:11.499Z,10.86
2019-01-05T00:06:04.508Z,10.76
2019-01-05T00:09:00.548Z,10.77
2019-01-05T00:12:08.151Z,10.85
2019-01-05T00:15:01.658Z,11.18
2019-01-05T00:18:03.273Z,10.96
2019-01-05T00:21:06.082Z,11.32
2019-01-05T00:24:01.627Z,11.11
2019-01-05T00:27:00.207Z,11.12
2019-01-05T00:30:01.896Z,11.35
2019-01-05T00:33:04.844Z,11.18
2019-01-05T00:36:31.367Z,10.64
2019-01-05T00:39:28.730Z,10.89
2019-01-05T00:42:19.880Z,10.92
2019-01-05T00:45:09.883Z,11.20
2019-01-05T00:48:01.725Z,11.26
2019-01-05T00:51:11.467Z,10.97
2019-01-05T00:54:11.680Z,10.95
2019-01-05T00:57:16.028Z,10.99
2019-01-05T01:03:36.475Z,11.23
2019-01-05T01:06:39.159Z,11.22
2019-01-05T01:09:32.026Z,11.34
2019-01-05T01:12:34.890Z,11.57
2019-01-05T01:15:24.764Z,11.42
2019-01-05T01:18:14.128Z,11.77
2019-01-05T01:21:05.259Z,11.21
2019-01-05T01:23:58.232Z,10.88
2019-01-05T01:27:16.081Z,10.92
2019-01-05T01:30:09.424Z,11.31
2019-01-05T01:32:59.836Z,11.25
2019-01-05T01:35:48.845Z,11.39
2019-01-05T01:39:08.132Z,11.32
2019-01-05T01:42:04.153Z,11.53
2019-01-05T01:44:57.606Z,11.68
2019-01-05T01:47:57.360Z,11.39
2019-01-05T01:50:53.815Z,11.47
2019-01-05T01:53:43.334Z,11.68
2019-01-05T01:56:56.107Z,11.62
2019-01-05T02:00:00.514Z,11.44
2019-01-05T02:03:08.070Z,11.76
2019-01-05T02:06:04.674Z,11.29
2019-01-05T02:09:02.074Z,11.67
2019-01-05T02:12:01.874Z,12.05
2019-01-05T02:14:59.227Z,11.67
2019-01-05T02:18:00.512Z,11.62
2019-01-05T02:21:14.850Z,11.50
2019-01-05T02:24:40.947Z,11.52
2019-01-05T02:28:16.078Z,11.54
2019-01-05T02:31:43.727Z,11.92
2019-01-05T02:35:11.234Z,11.64
2019-01-05T02:39:10.263Z,11.65
2019-01-05T02:42:24.343Z,11.74
2019-01-05T02:46:01.162Z,11.83
2019-01-05T02:49:22.169Z,11.78
2019-01-05T02:56:46.586Z,11.36
2019-01-05T03:00:06.051Z,11.23
2019-01-05T03:07:33.676Z,11.09
2019-01-05T03:11:05.074Z,10.77
2019-01-05T03:14:51.082Z,11.15
2019-01-05T03:18:36.252Z,11.34
2019-01-05T03:22:27.559Z,11.34
2019-01-05T03:25:53.993Z,11.19
2019-01-05T03:29:56.137Z,11.02
2019-01-05T03:33:54.140Z,11.04
2019-01-05T03:37:26.639Z,11.05
2019-01-05T03:40:51.914Z,10.79
2019-01-05T03:44:37.340Z,11.26
2019-01-05T03:48:40.241Z,11.37
2019-01-05T03:52:12.152Z,11.32
2019-01-05T03:55:51.222Z,11.12
2019-01-05T03:59:45.152Z,11.16
2019-01-05T04:03:20.048Z,11.19
2019-01-05T04:06:45.936Z,11.25
2019-01-05T04:10:37.615Z,11.22
2019-01-05T04:14:20.232Z,11.34
2019-01-05T04:17:57.775Z,11.14
2019-01-05T04:21:30.877Z,11.15
2019-01-05T04:24:52.488Z,11.24
2019-01-05T04:28:25.441Z,10.85
2019-01-05T04:32:23.530Z,11.14
2019-01-05T04:35:57.137Z,11.16
2019-01-05T04:39:32.118Z,11.32
2019-01-05T04:43:10.197Z,11.51
2019-01-05T04:46:25.582Z,11.30
2019-01-05T04:50:02.798Z,10.97
2019-01-05T04:53:37.993Z,11.28
2019-01-05T04:57:02.364Z,11.14
2019-01-05T05:00:34.398Z,11.36
2019-01-05T05:04:12.934Z,10.59
2019-01-05T05:07:30.535Z,10.99
2019-01-05T05:10:56.006Z,11.21
2019-01-05T05:14:33.086Z,11.17
2019-01-05T05:17:58.361Z,11.08
2019-01-05T05:21:31.855Z,11.01
2019-01-05T05:28:29.414Z,10.97
2019-01-05T05:31:55.129Z,11.10
2019-01-05T05:35:36.226Z,11.03
2019-01-05T05:39:01.607Z,10.73
2019-01-05T05:42:33.294Z,11.19
2019-01-05T05:46:27.203Z,11.10
2019-01-05T05:49:57.250Z,11.30
2019-01-05T05:57:06.062Z,11.33
2019-01-05T06:01:05.841Z,11.52
2019-01-05T06:04:30.874Z,11.36
2019-01-05T06:08:06.348Z,11.00
2019-01-05T06:11:39.433Z,11.09
2019-01-05T06:15:20.967Z,11.20
2019-01-05T06:18:49.980Z,11.14
2019-01-05T06:22:15.734Z,11.25
2019-01-05T06:25:52.277Z,11.20
2019-01-05T06:29:40.159Z,11.40
2019-01-05T06:33:11.096Z,11.18
2019-01-05T06:36:39.801Z,11.20
2019-01-05T06:40:31.105Z,11.51
2019-01-05T06:44:13.681Z,11.57
2019-01-05T06:48:09.552Z,11.47
2019-01-05T06:51:57.254Z,11.81
2019-01-05T06:55:24.641Z,11.77
2019-01-05T06:58:39.832Z,12.00
2019-01-05T07:02:05.377Z,11.75
2019-01-05T07:05:47.417Z,11.86
2019-01-05T07:09:26.625Z,11.78
2019-01-05T07:12:59.575Z,11.58
2019-01-05T07:16:42.005Z,12.14
2019-01-05T07:20:10.978Z,11.81
2019-01-05T07:23:52.170Z,11.31
2019-01-05T07:27:39.668Z,11.41
2019-01-05T07:31:14.161Z,11.44
2019-01-05T07:35:00.819Z,11.66
2019-01-05T07:38:13.370Z,11.57
2019-01-05T07:42:17.557Z,11.59
2019-01-05T07:45:46.483Z,11.09
2019-01-05T07:49:08.735Z,10.76
2019-01-05T07:52:34.596Z,11.13
2019-01-05T07:56:29.214Z,11.00
2019-01-05T08:00:04.121Z,11.10
2019-01-05T08:03:43.388Z,10.92
2019-01-05T08:07:21.248Z,11.41
2019-01-05T08:11:03.897Z,11.39
2019-01-05T08:14:32.900Z,10.93
2019-01-05T08:18:04.639Z,11.50
2019-01-05T08:21:34.174Z,11.72
2019-01-05T08:25:19.362Z,11.73
2019-01-05T08:28:58.520Z,11.56
2019-01-05T08:32:59.310Z,11.68
2019-01-05T08:36:34.589Z,11.99
2019-01-05T08:40:28.589Z,11.86
2019-01-05T08:44:30.692Z,12.08
2019-01-05T08:48:09.114Z,11.98
2019-01-05T08:51:44.049Z,11.93
2019-01-05T08:55:16.315Z,11.50
2019-01-05T08:58:55.592Z,11.12
2019-01-05T09:02:34.619Z,11.42
2019-01-05T09:05:58.987Z,11.12
2019-01-05T09:09:28.457Z,11.36
2019-01-05T09:12:52.046Z,11.55
2019-01-05T09:16:24.757Z,11.29
2019-01-05T09:20:07.765Z,11.37
2019-01-05T09:23:31.378Z,11.08
2019-01-05T09:26:59.622Z,11.16
2019-01-05T09:30:37.677Z,11.29
2019-01-05T09:34:19.245Z,11.43
2019-01-05T09:38:23.896Z,11.35
2019-01-05T09:42:11.047Z,11.49
2019-01-05T09:45:40.294Z,11.23
2019-01-05T09:49:05.031Z,10.81
2019-01-05T09:52:36.739Z,11.37
2019-01-05T09:56:00.586Z,11.28
2019-01-05T09:59:27.394Z,10.92
2019-01-05T10:03:08.735Z,11.09
2019-01-05T10:06:35.674Z,11.25
2019-01-05T10:10:32.558Z,11.04
2019-01-05T10:14:02.532Z,11.38
2019-01-05T10:17:37.094Z,11.32
2019-01-05T10:21:19.710Z,11.31
2019-01-05T10:24:56.774Z,11.25
2019-01-05T10:28:39.612Z,10.85
2019-01-05T10:32:09.782Z,10.86
2019-01-05T10:35:51.760Z,11.36
2019-01-05T10:39:18.415Z,11.55
2019-01-05T10:42:58.043Z,11.74
2019-01-05T10:46:24.716Z,11.93
2019-01-05T10:50:22.600Z,11.90
2019-01-05T10:54:22.518Z,11.93
2019-01-05T10:57:52.958Z,11.53
2019-01-05T11:01:42.646Z,11.93
2019-01-05T11:05:44.792Z,12.08
2019-01-05T11:09:49.572Z,11.73
2019-01-05T11:13:44.225Z,12.10
2019-01-05T11:17:12.594Z,11.54
2019-01-05T11:20:35.850Z,11.77
2019-01-05T11:24:25.831Z,11.79
2019-01-05T11:28:20.940Z,11.50
2019-01-05T11:31:47.986Z,11.41
2019-01-05T11:38:49.799Z,11.54
2019-01-05T11:42:11.945Z,11.57
2019-01-05T11:45:30.881Z,10.88
2019-01-05T11:49:33.926Z,11.17
2019-01-05T11:53:04.641Z,11.32
2019-01-05T11:56:58.113Z,11.32
2019-01-05T12:00:22.965Z,11.77
2019-01-05T12:04:30.111Z,11.22
2019-01-05T12:08:19.386Z,11.54
2019-01-05T12:12:15.537Z,11.88
2019-01-05T12:15:51.003Z,11.53
2019-01-05T12:19:25.173Z,11.40
2019-01-05T12:23:07.003Z,11.97
2019-01-05T12:27:03.130Z,11.58
2019-01-05T12:30:35.591Z,12.10
2019-01-05T12:34:14.360Z,11.19
2019-01-05T12:37:44.696Z,11.82
2019-01-05T12:41:11.028Z,12.30
2019-01-05T12:48:46.516Z,12.42
2019-01-05T12:52:12.535Z,12.43
2019-01-05T12:55:47.849Z,12.21
2019-01-05T12:59:35.859Z,11.70
2019-01-05T13:03:23.688Z,11.90
2019-01-05T13:06:51.369Z,12.21
2019-01-05T13:10:26.434Z,11.25
2019-01-05T13:13:55.732Z,11.78
2019-01-05T13:17:26.284Z,12.00
2019-01-05T13:20:42.877Z,11.91
2019-01-05T13:24:12.031Z,11.72
2019-01-05T13:27:57.260Z,11.74
2019-01-05T13:31:41.422Z,12.06
2019-01-05T13:35:14.546Z,11.76
2019-01-05T13:38:55.508Z,11.45
2019-01-05T13:42:31.157Z,11.35
2019-01-05T13:46:34.955Z,11.29
2019-01-05T13:50:12.571Z,11.68
2019-01-05T13:53:30.256Z,11.87
2019-01-05T13:56:58.390Z,11.73
2019-01-05T14:00:14.094Z,12.06
2019-01-05T14:03:11.423Z,12.09
2019-01-05T14:06:20.270Z,11.47
2019-01-05T14:09:16.312Z,12.11
2019-01-05T14:12:28.631Z,12.05
2019-01-05T14:15:23.837Z,12.10
2019-01-05T14:18:17.561Z,11.95
2019-01-05T14:21:14.037Z,12.13
2019-01-05T14:23:57.269Z,12.26
2019-01-05T14:26:50.851Z,12.28
2019-01-05T14:29:50.753Z,12.55
2019-01-05T14:32:47.097Z,12.69
2019-01-05T14:35:50.388Z,12.58
2019-01-05T14:38:54.885Z,12.47
2019-01-05T14:41:53.810Z,12.37
2019-01-05T14:44:52.463Z,12.50
2019-01-05T14:47:54.351Z,12.29
2019-01-05T14:50:48.781Z,12.53
2019-01-05T14:53:38.445Z,12.60
2019-01-05T14:56:32.631Z,12.31
2019-01-05T14:59:50.360Z,11.70
2019-01-05T15:02:52.056Z,12.10
2019-01-05T15:05:45.397Z,11.86
2019-01-05T15:08:38.085Z,11.99
2019-01-05T15:11:38.235Z,11.74
2019-01-05T15:14:41.447Z,11.89
2019-01-05T15:17:45.376Z,12.06
2019-01-05T15:20:45.650Z,11.68
2019-01-05T15:23:44.916Z,11.75
2019-01-05T15:26:47.581Z,11.99
2019-01-05T15:30:03.369Z,11.69
2019-01-05T15:33:11.542Z,11.50
2019-01-05T15:36:11.594Z,11.65
2019-01-05T15:39:01.710Z,11.39
2019-01-05T15:42:08.577Z,11.40
2019-01-05T15:45:03.159Z,11.66
2019-01-05T15:47:51.986Z,11.82
2019-01-05T15:50:56.056Z,11.80
2019-01-05T15:54:01.628Z,12.04
2019-01-05T15:56:56.917Z,12.24
2019-01-05T16:00:01.881Z,12.19
2019-01-05T16:02:58.258Z,11.96
2019-01-05T16:05:47.299Z,12.06
2019-01-05T16:08:41.446Z,11.51
2019-01-05T16:11:31.654Z,11.49
2019-01-05T16:14:21.436Z,11.47
2019-01-05T16:17:26.970Z,11.53
2019-01-05T16:20:33.113Z,11.70
2019-01-05T16:23:26.623Z,11.56
2019-01-05T16:26:17.644Z,11.79
2019-01-05T16:29:08.267Z,11.97
2019-01-05T16:32:11.928Z,11.66
2019-01-05T16:35:06.540Z,11.55
2019-01-05T16:38:09.264Z,11.86
2019-01-05T16:41:14.101Z,12.13
2019-01-05T16:44:12.202Z,12.04
2019-01-05T16:47:22.771Z,11.70
2019-01-05T16:50:18.285Z,12.10
2019-01-05T16:53:09.308Z,11.74
2019-01-05T16:56:04.024Z,12.11
2019-01-05T16:59:01.349Z,11.89
2019-01-05T17:01:52.733Z,12.02
2019-01-05T17:04:45.063Z,11.94
2019-01-05T17:07:57.039Z,11.78
2019-01-05T17:10:50.145Z,12.31
2019-01-05T17:13:40.994Z,12.12
2019-01-05T17:16:38.866Z,12.07
2019-01-05T17:19:36.692Z,12.18
2019-01-05T17:22:31.366Z,12.32
2019-01-05T17:25:18.290Z,12.33
2019-01-05T17:28:19.992Z,12.08
2019-01-05T17:31:18.833Z,12.02
2019-01-05T17:34:09.341Z,12.36
2019-01-05T17:37:05.240Z,12.02
2019-01-05T17:40:07.961Z,12.29
2019-01-05T17:43:10.819Z,12.15
2019-01-05T17:46:18.849Z,11.96
2019-01-05T17:49:24.495Z,11.77
2019-01-05T17:52:23.304Z,11.92
2019-01-05T17:55:16.132Z,11.51
2019-01-05T17:58:20.341Z,11.93
2019-01-05T18:01:13.697Z,12.16
2019-01-05T18:04:14.446Z,12.03
2019-01-05T18:07:11.663Z,11.95
2019-01-05T18:13:16.769Z,11.98
2019-01-05T18:16:07.210Z,12.10
2019-01-05T18:18:51.214Z,12.55
2019-01-05T18:21:53.014Z,12.09
2019-01-05T18:24:39.491Z,11.95
2019-01-05T18:27:31.322Z,12.01
2019-01-05T18:30:29.622Z,11.96
2019-01-05T18:33:29.136Z,11.56
2019-01-05T18:36:20.667Z,11.39
2019-01-05T18:39:30.711Z,11.63
2019-01-05T18:42:22.551Z,11.78
2019-01-05T18:45:18.555Z,11.69
2019-01-05T18:48:10.150Z,11.78
2019-01-05T18:51:15.312Z,11.87
2019-01-05T18:54:08.094Z,11.83
2019-01-05T18:57:02.526Z,11.81
2019-01-05T19:00:01.226Z,11.97
2019-01-05T19:02:57.816Z,11.70
2019-01-05T19:05:50.694Z,11.83
2019-01-05T19:08:45.712Z,11.89
2019-01-05T19:11:51.625Z,11.87
2019-01-05T19:15:03.853Z,12.09
2019-01-05T19:17:59.201Z,11.80
2019-01-05T19:20:54.996Z,12.07
2019-01-05T19:24:06.076Z,11.82
2019-01-05T19:27:02.410Z,12.14
2019-01-05T19:30:01.740Z,12.13
2019-01-05T19:33:00.944Z,11.57
2019-01-05T19:36:09.160Z,12.06
2019-01-05T19:39:06.631Z,12.04
2019-01-05T19:42:05.350Z,11.61
2019-01-05T19:45:05.717Z,12.16
2019-01-05T19:48:04.311Z,11.66
2019-01-05T19:50:58.322Z,11.96
2019-01-05T19:54:10.165Z,11.99
2019-01-05T19:57:02.486Z,11.95
2019-01-05T20:00:02.363Z,12.10
2019-01-05T20:03:04.792Z,11.90
2019-01-05T20:05:57.849Z,11.44
2019-01-05T20:09:02.807Z,11.88
2019-01-05T20:12:14.723Z,11.70
2019-01-05T20:15:24.457Z,11.18
2019-01-05T20:18:22.904Z,11.43
2019-01-05T20:21:21.923Z,11.41
2019-01-05T20:24:22.843Z,11.42
2019-01-05T20:27:17.260Z,10.97
2019-01-05T20:30:12.174Z,11.56
2019-01-05T20:33:01.368Z,11.23
2019-01-05T20:35:55.821Z,11.35
2019-01-05T20:38:58.138Z,11.77
2019-01-05T20:42:10.037Z,11.54
2019-01-05T20:45:09.703Z,11.65
2019-01-05T20:48:07.440Z,11.13
2019-01-05T20:50:59.392Z,11.44
2019-01-05T20:53:50.835Z,11.54
2019-01-05T20:56:53.218Z,11.43
2019-01-05T20:59:47.968Z,11.20
2019-01-05T21:02:39.407Z,11.40
2019-01-05T21:05:29.939Z,11.35
2019-01-05T21:08:30.296Z,11.59
2019-01-05T21:11:37.825Z,11.41
2019-01-05T21:14:30.220Z,11.39
2019-01-05T21:17:35.690Z,11.07
2019-01-05T21:20:29.428Z,11.35
2019-01-05T21:23:22.198Z,11.04
2019-01-05T21:26:24.461Z,11.42
2019-01-05T21:29:13.617Z,11.39
2019-01-05T21:32:13.122Z,11.07
2019-01-05T21:35:03.024Z,11.62
2019-01-05T21:38:03.285Z,11.28
2019-01-05T21:41:08.552Z,11.73
2019-01-05T21:43:57.845Z,11.57
2019-01-05T21:47:06.590Z,11.64
2019-01-05T21:50:17.058Z,11.09
2019-01-05T21:53:10.245Z,11.47
2019-01-05T21:56:01.153Z,11.49
2019-01-05T21:58:51.823Z,11.42
2019-01-05T22:01:39.745Z,11.28
2019-01-05T22:04:44.614Z,11.46
2019-01-05T22:07:33.502Z,11.64
2019-01-05T22:10:33.432Z,11.53
2019-01-05T22:13:24.974Z,11.64
2019-01-05T22:16:26.406Z,11.75
2019-01-05T22:19:21.430Z,11.80
2019-01-05T22:22:10.734Z,11.69
2019-01-05T22:25:00.401Z,11.52
2019-01-05T22:28:14.188Z,11.76
2019-01-05T22:31:04.742Z,11.98
2019-01-05T22:34:06.832Z,11.88
2019-01-05T22:37:19.052Z,11.89
2019-01-05T22:40:19.560Z,11.37
2019-01-05T22:43:16.040Z,11.87
2019-01-05T22:46:16.936Z,11.69
2019-01-05T22:49:11.770Z,11.92
2019-01-05T22:52:15.277Z,11.58
2019-01-05T22:55:16.462Z,11.99
2019-01-05T22:58:10.257Z,11.55
2019-01-05T23:01:17.030Z,11.72
2019-01-05T23:04:08.069Z,11.72
2019-01-05T23:07:10.198Z,11.60
2019-01-05T23:10:05.003Z,12.03
2019-01-05T23:13:19.895Z,12.07
2019-01-05T23:16:19.072Z,11.96
2019-01-05T23:19:09.329Z,11.17
2019-01-05T23:22:19.324Z,11.54
2019-01-05T23:25:11.056Z,11.93
2019-01-05T23:28:15.047Z,11.77
2019-01-05T23:31:25.142Z,11.75
2019-01-05T23:34:28.384Z,11.82
2019-01-05T23:37:20.080Z,11.73
2019-01-05T23:40:32.643Z,11.61
2019-01-05T23:43:25.243Z,11.59
2019-01-05T23:46:22.965Z,11.69
2019-01-05T23:49:19.748Z,11.57
2019-01-05T23:52:18.591Z,12.01
2019-01-05T23:55:14.432Z,11.86
2019-01-05T23:58:09.826Z,11.96
